Time;durP1;ratioP1;P1;durP2;ratioP2;P2;SDS_P1;SDS_P2;PMS_P1;PMS_P2;Temp;Humidity;BMP_temperature;BMP_pressure;BME280_temperature;BME280_humidity;BME280_pressure;Samples;Min_cycle;Max_cycle;Signal;HPM_P1;HPM_P2
2024/01/17 00:01:58;;;;;;;9.13;5.38;;;1.70;99.90;;;;;;4904978;28;20040;-62
2024/01/17 00:04:24;;;;;;;8.25;4.35;;;1.70;99.90;;;;;;4901224;28;20056;-62
2024/01/17 00:06:50;;;;;;;8.25;4.32;;;1.70;99.90;;;;;;4888848;28;20481;-62
2024/01/17 00:09:18;;;;;;;9.50;4.47;;;1.60;99.90;;;;;;4890655;28;20051;-63
2024/01/17 00:11:44;;;;;;;7.20;4.20;;;1.70;99.90;;;;;;4888356;28;20048;-62
2024/01/17 00:14:10;;;;;;;9.10;4.75;;;1.70;99.90;;;;;;4886463;28;20040;-63
2024/01/17 00:16:37;;;;;;;8.25;4.13;;;1.70;99.90;;;;;;4908208;28;20056;-62
2024/01/17 00:19:03;;;;;;;6.32;4.40;;;1.60;99.90;;;;;;4969968;28;20455;-62
2024/01/17 00:21:29;;;;;;;8.43;4.40;;;1.60;99.90;;;;;;4894396;28;20049;-62
2024/01/17 00:23:55;;;;;;;11.27;5.47;;;1.60;99.90;;;;;;4906459;28;20395;-62
2024/01/17 00:26:21;;;;;;;10.68;4.97;;;1.60;99.90;;;;;;4920176;28;20040;-62
2024/01/17 00:28:46;;;;;;;9.77;5.20;;;1.60;99.90;;;;;;4906201;28;20063;-63
2024/01/17 00:31:12;;;;;;;9.77;5.65;;;1.60;99.90;;;;;;4909115;28;20174;-62
2024/01/17 00:33:38;;;;;;;9.65;5.28;;;1.60;99.90;;;;;;4886048;28;20047;-63
2024/01/17 00:36:04;;;;;;;12.32;5.40;;;1.50;99.90;;;;;;4890316;28;20738;-63
2024/01/17 00:38:33;;;;;;;10.32;4.90;;;1.50;99.90;;;;;;4891177;28;20040;-63
2024/01/17 00:40:58;;;;;;;10.13;5.72;;;1.50;99.90;;;;;;4891516;28;20042;-63
2024/01/17 00:43:24;;;;;;;11.95;7.07;;;1.50;99.90;;;;;;4894386;28;20534;-63
2024/01/17 00:45:50;;;;;;;10.02;5.85;;;1.50;99.90;;;;;;4889692;28;20099;-63
2024/01/17 00:48:15;;;;;;;8.98;5.57;;;1.50;99.90;;;;;;4894250;28;20253;-64
2024/01/17 00:50:41;;;;;;;9.82;5.57;;;1.50;99.90;;;;;;4891045;28;20120;-63
2024/01/17 00:53:07;;;;;;;10.73;6.43;;;1.50;99.90;;;;;;4871581;28;20236;-63
2024/01/17 00:55:33;;;;;;;11.75;6.20;;;1.50;99.90;;;;;;4922142;28;20088;-63
2024/01/17 00:57:59;;;;;;;9.50;5.55;;;1.50;99.90;;;;;;4886854;28;20056;-64
2024/01/17 01:00:25;;;;;;;11.75;5.95;;;1.40;99.90;;;;;;4891770;28;20154;-63
2024/01/17 01:02:53;;;;;;;10.30;7.00;;;1.40;99.90;;;;;;4890161;28;20039;-63
2024/01/17 01:05:19;;;;;;;13.50;6.03;;;1.40;99.90;;;;;;4903011;28;20048;-63
2024/01/17 01:07:47;;;;;;;13.50;6.05;;;1.40;99.90;;;;;;4873564;28;20496;-63
2024/01/17 01:10:13;;;;;;;11.80;6.07;;;1.50;99.90;;;;;;4888807;28;20052;-63
2024/01/17 01:12:39;;;;;;;10.38;6.60;;;1.40;99.90;;;;;;4893040;28;20054;-63
2024/01/17 01:15:05;;;;;;;11.52;6.18;;;1.40;99.90;;;;;;4913374;28;20044;-63
2024/01/17 01:17:31;;;;;;;12.07;6.68;;;1.40;99.90;;;;;;4891350;28;20052;-63
2024/01/17 01:19:57;;;;;;;12.18;7.07;;;1.40;99.90;;;;;;4907969;28;20517;-63
2024/01/17 01:22:23;;;;;;;10.52;6.35;;;1.40;99.90;;;;;;4885823;28;20076;-65
2024/01/17 01:24:49;;;;;;;8.73;6.18;;;1.40;99.90;;;;;;4888045;28;20217;-64
2024/01/17 01:27:15;;;;;;;15.45;7.40;;;1.40;99.90;;;;;;4888362;28;20252;-64
2024/01/17 01:29:41;;;;;;;14.48;6.88;;;1.40;99.90;;;;;;4871554;28;20048;-64
2024/01/17 01:32:07;;;;;;;12.63;7.28;;;1.40;99.90;;;;;;4892878;28;20520;-63
2024/01/17 01:34:33;;;;;;;12.77;7.70;;;1.40;99.90;;;;;;4905676;28;20040;-63
2024/01/17 01:37:00;;;;;;;15.52;7.70;;;1.40;99.90;;;;;;4904073;28;20115;-63
2024/01/17 01:39:26;;;;;;;10.35;6.55;;;1.30;99.90;;;;;;4876645;28;20045;-63
2024/01/17 01:41:52;;;;;;;14.40;6.97;;;1.40;99.90;;;;;;4870089;28;20051;-64
2024/01/17 01:44:18;;;;;;;14.40;6.97;;;1.30;99.90;;;;;;4889890;28;20048;-63
2024/01/17 01:46:45;;;;;;;12.00;7.00;;;1.30;99.90;;;;;;4903327;28;20049;-63
2024/01/17 01:49:12;;;;;;;11.45;7.15;;;1.30;99.90;;;;;;4887791;28;20496;-63
2024/01/17 01:51:39;;;;;;;12.48;7.50;;;1.30;99.90;;;;;;4881549;28;20051;-63
2024/01/17 01:54:06;;;;;;;13.15;6.50;;;1.30;99.90;;;;;;4888258;28;20087;-63
2024/01/17 01:56:34;;;;;;;11.45;7.20;;;1.30;99.90;;;;;;4894382;28;20150;-63
2024/01/17 01:59:01;;;;;;;15.07;7.72;;;1.30;99.90;;;;;;4975860;28;20189;-62
2024/01/17 02:01:29;;;;;;;13.23;6.80;;;1.30;99.90;;;;;;4891159;28;20127;-64
2024/01/17 02:03:56;;;;;;;14.63;7.57;;;1.30;99.90;;;;;;4895209;28;20216;-63
2024/01/17 02:06:23;;;;;;;11.45;7.20;;;1.30;99.90;;;;;;4895024;28;20106;-63
2024/01/17 02:08:52;;;;;;;11.25;7.35;;;1.30;99.90;;;;;;4893922;28;20446;-63
2024/01/17 02:11:18;;;;;;;14.68;8.95;;;1.30;99.90;;;;;;4907399;28;20032;-63
2024/01/17 02:13:44;;;;;;;18.77;8.02;;;1.30;99.90;;;;;;4901777;28;20058;-63
2024/01/17 02:16:12;;;;;;;14.77;7.47;;;1.30;99.90;;;;;;4909839;28;20043;-63
2024/01/17 02:18:38;;;;;;;16.77;7.72;;;1.20;99.90;;;;;;4891403;28;20044;-63
2024/01/17 02:21:05;;;;;;;11.25;6.97;;;1.30;99.90;;;;;;4920444;28;20051;-63
2024/01/17 02:23:30;;;;;;;16.30;7.82;;;1.20;99.90;;;;;;4895643;28;20103;-62
2024/01/17 02:25:57;;;;;;;12.93;7.80;;;1.20;99.90;;;;;;4876644;28;20040;-63
2024/01/17 02:28:29;;;;;;;13.82;7.40;;;1.20;99.90;;;;;;4974102;28;20036;-62
2024/01/17 02:30:55;;;;;;;11.15;6.95;;;1.20;99.90;;;;;;4893584;28;20043;-63
2024/01/17 02:33:21;;;;;;;13.10;7.57;;;1.20;99.90;;;;;;4889874;28;20098;-63
2024/01/17 02:35:47;;;;;;;11.68;7.18;;;1.20;99.90;;;;;;4895514;28;20055;-63
2024/01/17 02:38:13;;;;;;;12.45;8.27;;;1.20;99.90;;;;;;4896900;28;20190;-63
2024/01/17 02:40:39;;;;;;;11.32;7.20;;;1.20;99.90;;;;;;4879757;28;20143;-63
2024/01/17 02:43:05;;;;;;;12.80;8.30;;;1.20;99.90;;;;;;4874791;28;20047;-62
2024/01/17 02:45:31;;;;;;;14.57;7.80;;;1.20;99.90;;;;;;4915750;28;20067;-63
2024/01/17 02:47:57;;;;;;;19.08;10.70;;;1.20;99.90;;;;;;4906038;28;20468;-63
2024/01/17 02:50:23;;;;;;;16.38;8.35;;;1.20;99.90;;;;;;4892374;28;20079;-62
2024/01/17 02:52:49;;;;;;;11.40;7.60;;;1.20;99.90;;;;;;4888595;28;20068;-63
2024/01/17 02:55:16;;;;;;;15.45;8.55;;;1.10;99.90;;;;;;4897625;28;20561;-63
2024/01/17 02:57:42;;;;;;;13.90;8.02;;;1.20;99.90;;;;;;4910441;28;20075;-63
2024/01/17 03:00:09;;;;;;;14.70;8.80;;;1.20;99.90;;;;;;4892121;28;20078;-64
2024/01/17 03:02:35;;;;;;;16.25;8.55;;;1.10;99.90;;;;;;4925369;28;20080;-63
2024/01/17 03:05:03;;;;;;;15.02;8.55;;;1.20;99.90;;;;;;4890022;28;20064;-62
2024/01/17 03:07:32;;;;;;;12.82;8.57;;;1.20;99.90;;;;;;4889253;28;20075;-62
2024/01/17 03:09:58;;;;;;;16.40;9.07;;;1.20;99.90;;;;;;4879825;28;20798;-62
2024/01/17 03:12:24;;;;;;;13.18;8.48;;;1.20;99.90;;;;;;4889848;28;20056;-63
2024/01/17 03:14:50;;;;;;;15.38;8.75;;;1.20;99.90;;;;;;4905888;28;20416;-62
2024/01/17 03:17:17;;;;;;;16.45;9.25;;;1.20;99.90;;;;;;4890205;28;20050;-62
2024/01/17 03:19:44;;;;;;;13.13;8.63;;;1.20;99.90;;;;;;4873403;28;20558;-63
2024/01/17 03:22:10;;;;;;;14.68;8.88;;;1.20;99.90;;;;;;4888483;28;20119;-62
2024/01/17 03:24:39;;;;;;;14.18;8.48;;;1.20;99.90;;;;;;4906801;28;20574;-62
2024/01/17 03:27:05;;;;;;;18.75;10.70;;;1.20;99.90;;;;;;4906319;28;20082;-62
2024/01/17 03:29:31;;;;;;;13.52;8.77;;;1.20;99.90;;;;;;4899316;28;20044;-63
2024/01/17 03:31:56;;;;;;;15.10;9.40;;;1.20;99.90;;;;;;4909011;29;20044;-62
2024/01/17 03:34:22;;;;;;;20.40;9.18;;;1.20;99.90;;;;;;4898034;28;20041;-63
2024/01/17 03:36:48;;;;;;;13.13;9.15;;;1.20;99.90;;;;;;4916331;28;20048;-62
2024/01/17 03:39:14;;;;;;;15.63;9.07;;;1.20;99.90;;;;;;4892196;28;20479;-62
2024/01/17 03:41:39;;;;;;;16.45;10.07;;;1.30;99.90;;;;;;4912056;28;20168;-62
2024/01/17 03:44:06;;;;;;;14.05;8.93;;;1.20;99.90;;;;;;4909112;28;20040;-62
2024/01/17 03:46:31;;;;;;;14.60;8.82;;;1.30;99.90;;;;;;4897275;28;20442;-64
2024/01/17 03:48:57;;;;;;;18.05;9.85;;;1.30;99.90;;;;;;4894975;28;20036;-63
2024/01/17 03:51:23;;;;;;;14.40;10.00;;;1.20;99.90;;;;;;4891487;28;20537;-62
2024/01/17 03:53:48;;;;;;;17.40;10.20;;;1.30;99.90;;;;;;4893925;28;20040;-63
2024/01/17 03:56:15;;;;;;;14.23;9.63;;;1.20;99.90;;;;;;4909198;28;20048;-62
2024/01/17 03:58:41;;;;;;;18.45;10.75;;;1.20;99.90;;;;;;4889302;28;20040;-62
2024/01/17 04:01:10;;;;;;;17.02;10.43;;;1.20;99.90;;;;;;4903830;28;20626;-62
2024/01/17 04:03:35;;;;;;;14.85;9.90;;;1.20;99.90;;;;;;4904342;28;20044;-63
2024/01/17 04:06:02;;;;;;;17.42;10.48;;;1.20;99.90;;;;;;4894422;28;20052;-63
2024/01/17 04:08:29;;;;;;;19.48;9.88;;;1.20;99.90;;;;;;4906616;28;20052;-62
2024/01/17 04:10:54;;;;;;;17.52;10.20;;;1.20;99.90;;;;;;4918317;28;20480;-63
2024/01/17 04:13:20;;;;;;;18.08;10.15;;;1.20;99.90;;;;;;4890714;28;20063;-61
2024/01/17 04:15:46;;;;;;;14.95;10.18;;;1.20;99.90;;;;;;4957106;28;20044;-61
2024/01/17 04:18:11;;;;;;;26.45;11.85;;;1.20;99.90;;;;;;4907440;28;20495;-61
2024/01/17 04:20:37;;;;;;;16.15;10.15;;;1.20;99.90;;;;;;4891776;28;20060;-61
2024/01/17 04:23:08;;;;;;;17.08;10.45;;;1.20;99.90;;;;;;4888757;28;20129;-61
2024/01/17 04:25:35;;;;;;;17.42;9.65;;;1.20;99.90;;;;;;4888560;28;20139;-61
2024/01/17 04:28:08;;;;;;;17.23;10.45;;;1.20;99.90;;;;;;4896710;28;20028;-61
2024/01/17 04:30:34;;;;;;;17.77;10.32;;;1.20;99.90;;;;;;4970625;28;20083;-61
2024/01/17 04:33:00;;;;;;;16.63;10.10;;;1.20;99.90;;;;;;4889098;28;20094;-61
2024/01/17 04:35:27;;;;;;;16.38;10.40;;;1.30;99.90;;;;;;4892667;28;20062;-61
2024/01/17 04:37:53;;;;;;;15.60;9.77;;;1.20;99.90;;;;;;4905832;28;20438;-61
2024/01/17 04:40:18;;;;;;;16.17;10.13;;;1.20;99.90;;;;;;4974512;28;20078;-61
2024/01/17 04:42:48;;;;;;;21.55;11.40;;;1.20;99.90;;;;;;4887544;28;20048;-61
2024/01/17 04:45:17;;;;;;;19.70;11.13;;;1.30;99.90;;;;;;4897581;28;20503;-61
2024/01/17 04:47:43;;;;;;;20.75;11.95;;;1.30;99.90;;;;;;4905736;28;20269;-62
2024/01/17 04:50:10;;;;;;;17.92;10.73;;;1.20;99.90;;;;;;4887230;28;20040;-61
2024/01/17 04:52:36;;;;;;;17.92;11.27;;;1.30;99.90;;;;;;4901018;28;20514;-62
2024/01/17 04:55:02;;;;;;;18.80;10.70;;;1.10;99.90;;;;;;4914390;28;20036;-62
2024/01/17 04:57:28;;;;;;;18.98;10.95;;;1.20;99.90;;;;;;4887156;28;20052;-61
2024/01/17 04:59:54;;;;;;;15.15;10.57;;;1.20;99.90;;;;;;4903370;28;20052;-62
2024/01/17 05:02:20;;;;;;;18.67;11.73;;;1.20;99.90;;;;;;4886764;28;20047;-62
2024/01/17 05:04:45;;;;;;;17.13;10.35;;;1.20;99.90;;;;;;4895605;28;20119;-62
2024/01/17 05:07:11;;;;;;;16.35;10.18;;;1.20;99.90;;;;;;4894279;28;20080;-62
2024/01/17 05:09:37;;;;;;;17.33;10.43;;;1.10;99.90;;;;;;4909325;28;20052;-62
2024/01/17 05:12:04;;;;;;;17.33;10.20;;;1.10;99.90;;;;;;4920799;28;20043;-61
2024/01/17 05:14:30;;;;;;;17.80;10.70;;;1.10;99.90;;;;;;4888667;28;20129;-61
2024/01/17 05:16:56;;;;;;;14.30;9.88;;;1.00;99.90;;;;;;4907168;28;20082;-61
2024/01/17 05:19:22;;;;;;;16.45;10.63;;;1.00;99.90;;;;;;4887170;28;20199;-62
2024/01/17 05:21:47;;;;;;;17.80;11.40;;;1.00;99.90;;;;;;4886002;28;20754;-62
2024/01/17 05:24:13;;;;;;;16.60;10.85;;;1.10;99.90;;;;;;4883629;28;20111;-61
2024/01/17 05:26:39;;;;;;;18.42;10.75;;;1.00;99.90;;;;;;4901509;28;20099;-62
2024/01/17 05:29:05;;;;;;;19.05;11.13;;;1.00;99.90;;;;;;4888956;28;20048;-61
2024/01/17 05:31:31;;;;;;;16.92;10.60;;;0.90;99.90;;;;;;4890875;28;20054;-61
2024/01/17 05:33:57;;;;;;;16.73;11.57;;;0.90;99.90;;;;;;4890866;28;20048;-62
2024/01/17 05:36:23;;;;;;;16.20;11.20;;;0.90;99.90;;;;;;4873133;28;20455;-62
2024/01/17 05:38:48;;;;;;;21.48;12.23;;;0.90;99.90;;;;;;4896548;28;20047;-62
2024/01/17 05:41:14;;;;;;;18.67;12.38;;;0.90;99.90;;;;;;4899304;28;20044;-61
2024/01/17 05:43:40;;;;;;;18.45;11.25;;;0.80;99.90;;;;;;4891504;29;20047;-62
2024/01/17 05:46:05;;;;;;;21.95;11.88;;;0.80;99.90;;;;;;4899133;28;20191;-61
2024/01/17 05:48:31;;;;;;;17.85;11.63;;;0.80;99.90;;;;;;4893732;28;20113;-62
2024/01/17 05:50:57;;;;;;;18.63;11.75;;;0.80;99.90;;;;;;4881410;28;20503;-62
2024/01/17 05:53:23;;;;;;;18.67;11.52;;;0.70;99.90;;;;;;4891481;28;20185;-61
2024/01/17 05:55:49;;;;;;;20.33;12.20;;;0.70;99.90;;;;;;4901249;28;20046;-61
2024/01/17 05:58:14;;;;;;;26.17;13.02;;;0.70;99.90;;;;;;4876555;29;20052;-62
2024/01/17 06:00:40;;;;;;;17.00;10.75;;;0.70;99.90;;;;;;4900033;28;20040;-61
2024/01/17 06:03:06;;;;;;;15.75;10.63;;;0.60;99.90;;;;;;4892263;28;20056;-61
2024/01/17 06:05:32;;;;;;;22.95;12.38;;;0.60;99.90;;;;;;4913169;28;20539;-61
2024/01/17 06:07:58;;;;;;;20.83;12.05;;;0.60;99.90;;;;;;4911822;28;20050;-61
2024/01/17 06:10:25;;;;;;;18.83;11.93;;;0.60;99.90;;;;;;4890586;28;20130;-62
2024/01/17 06:12:50;;;;;;;20.52;12.07;;;0.60;99.90;;;;;;4913937;28;20056;-62
2024/01/17 06:15:17;;;;;;;18.02;12.27;;;0.60;99.90;;;;;;4903406;28;20048;-62
2024/01/17 06:17:44;;;;;;;17.52;11.93;;;0.60;99.90;;;;;;4912455;28;20154;-62
2024/01/17 06:20:11;;;;;;;17.05;11.98;;;0.50;99.90;;;;;;4929461;28;20515;-61
2024/01/17 06:22:37;;;;;;;20.92;11.93;;;0.50;99.90;;;;;;4899733;28;20079;-62
2024/01/17 06:25:05;;;;;;;22.17;14.52;;;0.50;99.90;;;;;;4891528;28;20167;-62
2024/01/17 06:27:30;;;;;;;16.67;11.55;;;0.50;99.90;;;;;;4876228;28;20040;-62
2024/01/17 06:29:57;;;;;;;19.77;12.05;;;0.50;99.90;;;;;;4890303;28;20054;-62
2024/01/17 06:32:22;;;;;;;26.05;13.40;;;0.50;99.90;;;;;;4891432;28;20411;-62
2024/01/17 06:34:48;;;;;;;24.05;12.43;;;0.50;99.90;;;;;;4891202;28;20044;-61
2024/01/17 06:37:14;;;;;;;24.23;13.82;;;0.50;99.90;;;;;;4898915;28;20052;-62
2024/01/17 06:39:40;;;;;;;18.17;11.98;;;0.50;99.90;;;;;;4897219;28;20547;-62
2024/01/17 06:42:06;;;;;;;25.75;11.82;;;0.50;99.90;;;;;;4890961;28;20135;-61
2024/01/17 06:44:32;;;;;;;16.67;12.02;;;0.50;99.90;;;;;;4893306;28;20487;-62
2024/01/17 06:46:57;;;;;;;20.50;12.50;;;0.50;99.90;;;;;;4871606;29;20040;-62
2024/01/17 06:49:23;;;;;;;18.95;11.77;;;0.50;99.90;;;;;;4889671;28;20055;-62
2024/01/17 06:51:49;;;;;;;20.85;12.00;;;0.40;99.90;;;;;;4891034;28;20521;-62
2024/01/17 06:54:15;;;;;;;20.35;11.73;;;0.40;99.90;;;;;;4896735;28;20196;-62
2024/01/17 06:56:41;;;;;;;20.52;11.55;;;0.40;99.90;;;;;;4890665;28;20082;-62
2024/01/17 06:59:06;;;;;;;19.27;11.88;;;0.30;99.90;;;;;;4891137;28;20068;-61
2024/01/17 07:01:35;;;;;;;18.65;12.38;;;0.30;99.90;;;;;;4887209;28;20419;-62
2024/01/17 07:04:01;;;;;;;19.15;11.55;;;0.30;99.90;;;;;;4908773;28;20044;-62
2024/01/17 07:06:28;;;;;;;20.50;11.93;;;0.30;99.90;;;;;;4892079;28;20040;-62
2024/01/17 07:08:54;;;;;;;20.20;12.35;;;0.30;99.90;;;;;;4902237;28;20038;-62
2024/01/17 07:11:19;;;;;;;19.95;12.25;;;0.30;99.90;;;;;;4892665;28;20302;-62
2024/01/17 07:13:45;;;;;;;19.55;12.18;;;0.20;99.90;;;;;;4873580;28;20100;-62
2024/01/17 07:16:17;;;;;;;21.10;12.57;;;0.20;99.90;;;;;;4887969;28;20079;-62
2024/01/17 07:18:42;;;;;;;20.40;11.50;;;0.20;99.90;;;;;;4889021;28;20067;-62
2024/01/17 07:21:09;;;;;;;21.90;12.88;;;0.20;99.90;;;;;;4890270;28;20044;-62
2024/01/17 07:23:36;;;;;;;17.77;10.68;;;0.20;99.90;;;;;;4889115;28;20376;-62
2024/01/17 07:26:03;;;;;;;19.92;11.63;;;0.20;99.90;;;;;;4886897;28;20106;-62
2024/01/17 07:28:29;;;;;;;21.23;11.65;;;0.20;99.90;;;;;;4895300;28;20048;-62
2024/01/17 07:30:55;;;;;;;20.70;11.82;;;0.10;99.90;;;;;;4873315;28;20052;-62
2024/01/17 07:33:21;;;;;;;20.48;11.48;;;0.10;99.90;;;;;;4899201;28;20342;-62
2024/01/17 07:35:47;;;;;;;17.58;11.18;;;0.10;99.90;;;;;;4890434;28;20464;-62
2024/01/17 07:38:14;;;;;;;18.23;11.05;;;0.10;99.90;;;;;;4874465;28;20082;-61
2024/01/17 07:40:40;;;;;;;17.35;11.93;;;0.10;99.90;;;;;;4970810;28;20043;-61
2024/01/17 07:43:06;;;;;;;21.38;11.70;;;0.10;99.90;;;;;;4881222;28;20048;-61
2024/01/17 07:45:31;;;;;;;16.10;10.60;;;0.10;99.90;;;;;;4900809;28;20040;-61
2024/01/17 07:47:57;;;;;;;15.88;10.35;;;0.10;99.90;;;;;;4892365;28;20043;-62
2024/01/17 07:50:23;;;;;;;23.88;11.88;;;0.10;99.90;;;;;;4892875;28;20732;-62
2024/01/17 07:52:49;;;;;;;17.48;10.93;;;0.10;99.90;;;;;;4889119;29;20044;-61
2024/01/17 07:55:15;;;;;;;18.55;11.52;;;0.10;99.90;;;;;;4880092;28;20078;-61
2024/01/17 07:57:41;;;;;;;21.80;11.63;;;0.00;99.90;;;;;;4903734;28;20059;-61
2024/01/17 08:00:08;;;;;;;19.48;11.93;;;0.00;99.90;;;;;;4891811;28;20503;-61
2024/01/17 08:02:33;;;;;;;20.52;12.13;;;0.00;99.90;;;;;;4890288;28;20499;-61
2024/01/17 08:04:59;;;;;;;16.95;10.88;;;0.00;99.90;;;;;;4906617;28;20040;-61
2024/01/17 08:07:26;;;;;;;18.80;10.57;;;0.00;99.90;;;;;;4890161;28;20048;-61
2024/01/17 08:09:52;;;;;;;16.65;11.23;;;0.00;99.90;;;;;;4953519;28;20056;-61
2024/01/17 08:12:19;;;;;;;21.38;12.77;;;0.00;99.90;;;;;;4905593;28;20044;-61
2024/01/17 08:14:45;;;;;;;21.65;11.23;;;0.00;99.90;;;;;;4889714;28;20053;-61
2024/01/17 08:17:11;;;;;;;17.70;11.45;;;0.00;99.90;;;;;;4911019;28;20048;-62
2024/01/17 08:19:37;;;;;;;23.75;11.65;;;0.00;99.90;;;;;;4889468;28;20132;-62
2024/01/17 08:22:04;;;;;;;19.30;11.45;;;0.00;99.90;;;;;;4892500;28;20087;-61
2024/01/17 08:24:30;;;;;;;20.13;11.75;;;0.00;99.90;;;;;;4890327;28;20458;-61
2024/01/17 08:26:56;;;;;;;24.50;12.63;;;0.00;99.90;;;;;;4909511;28;20167;-61
2024/01/17 08:29:22;;;;;;;19.75;12.15;;;0.00;99.90;;;;;;4890224;28;20503;-61
2024/01/17 08:31:49;;;;;;;20.17;13.07;;;0.00;99.90;;;;;;4874194;28;20762;-61
2024/01/17 08:34:14;;;;;;;22.15;12.05;;;0.10;99.90;;;;;;4875389;28;20511;-62
2024/01/17 08:36:40;;;;;;;21.23;11.20;;;0.00;99.90;;;;;;4889735;28;20082;-62
2024/01/17 08:39:06;;;;;;;19.75;12.23;;;0.00;99.90;;;;;;4903697;28;20052;-62
2024/01/17 08:41:33;;;;;;;18.00;11.18;;;0.10;99.90;;;;;;4870175;28;20056;-62
2024/01/17 08:44:00;;;;;;;23.20;12.35;;;0.00;99.90;;;;;;4889937;28;20094;-62
2024/01/17 08:46:25;;;;;;;21.83;13.18;;;0.10;99.90;;;;;;4906980;28;20040;-62
2024/01/17 08:48:51;;;;;;;18.52;11.07;;;0.10;99.90;;;;;;4902944;28;20055;-62
2024/01/17 08:51:17;;;;;;;23.55;12.70;;;0.10;99.90;;;;;;4887494;28;20047;-62
2024/01/17 08:53:43;;;;;;;18.92;12.30;;;0.10;99.90;;;;;;4889026;28;20036;-61
2024/01/17 08:56:10;;;;;;;19.30;12.00;;;0.10;99.90;;;;;;4876863;28;20090;-61
2024/01/17 08:58:36;;;;;;;20.20;11.98;;;0.10;99.90;;;;;;4898856;28;20120;-62
2024/01/17 09:01:02;;;;;;;20.83;13.00;;;0.20;99.90;;;;;;4886912;28;20124;-61
2024/01/17 09:03:32;;;;;;;20.63;12.48;;;0.20;99.90;;;;;;4891194;28;20051;-61
2024/01/17 09:05:57;;;;;;;19.30;11.00;;;0.20;99.90;;;;;;4886108;28;20083;-61
2024/01/17 09:08:23;;;;;;;20.15;11.18;;;0.20;99.90;;;;;;4881688;28;20445;-61
2024/01/17 09:10:49;;;;;;;17.77;13.45;;;0.20;99.90;;;;;;4905499;28;20075;-61
2024/01/17 09:13:15;;;;;;;21.55;12.10;;;0.30;99.90;;;;;;4889916;29;20377;-62
2024/01/17 09:15:40;;;;;;;18.38;11.60;;;0.30;99.90;;;;;;4885825;28;20052;-62
2024/01/17 09:18:07;;;;;;;19.17;11.38;;;0.30;99.90;;;;;;4884959;29;20792;-62
2024/01/17 09:20:33;;;;;;;18.77;10.73;;;0.30;99.90;;;;;;4903480;28;20080;-61
2024/01/17 09:22:59;;;;;;;15.60;11.13;;;0.30;99.90;;;;;;4887626;28;20174;-61
2024/01/17 09:25:24;;;;;;;18.75;10.98;;;0.30;99.90;;;;;;4900259;28;20048;-62
2024/01/17 09:27:50;;;;;;;16.63;11.10;;;0.30;99.90;;;;;;4870678;28;20095;-61
2024/01/17 09:30:16;;;;;;;19.15;11.80;;;0.30;99.90;;;;;;4871503;28;20079;-62
2024/01/17 09:32:44;;;;;;;22.90;11.40;;;0.30;99.90;;;;;;4899279;28;20060;-62
2024/01/17 09:35:10;;;;;;;17.45;10.63;;;0.40;99.90;;;;;;4893960;28;20562;-62
2024/01/17 09:37:36;;;;;;;18.45;11.00;;;0.40;99.90;;;;;;4886458;28;20048;-61
2024/01/17 09:40:05;;;;;;;14.82;9.68;;;0.40;99.90;;;;;;4911137;28;20051;-61
2024/01/17 09:42:32;;;;;;;19.13;10.82;;;0.40;99.90;;;;;;4888020;28;20040;-61
2024/01/17 09:44:59;;;;;;;17.25;10.82;;;0.50;99.90;;;;;;4898758;28;20649;-61
2024/01/17 09:47:25;;;;;;;20.40;10.30;;;0.50;99.90;;;;;;4909556;28;20056;-62
2024/01/17 09:49:51;;;;;;;18.05;11.80;;;0.50;99.90;;;;;;4972391;28;20045;-61
2024/01/17 09:52:20;;;;;;;14.98;9.73;;;0.50;99.90;;;;;;4889039;28;20172;-61
2024/01/17 09:54:46;;;;;;;14.13;10.13;;;0.50;99.90;;;;;;4970219;28;20090;-61
2024/01/17 09:57:19;;;;;;;18.73;11.18;;;0.60;99.90;;;;;;4903431;28;20079;-62
2024/01/17 09:59:57;;;;;;;15.23;10.32;;;0.60;99.90;;;;;;4895873;28;20057;-61
2024/01/17 10:02:25;;;;;;;14.13;10.30;;;0.70;99.90;;;;;;4902580;28;20055;-61
2024/01/17 10:04:51;;;;;;;14.35;9.63;;;0.70;99.90;;;;;;4875181;28;20075;-62
2024/01/17 10:07:18;;;;;;;16.80;9.50;;;0.70;99.90;;;;;;4886117;28;20036;-62
2024/01/17 10:09:45;;;;;;;17.92;12.00;;;0.70;99.90;;;;;;4871493;28;20504;-61
2024/01/17 10:12:11;;;;;;;17.40;9.68;;;0.70;99.90;;;;;;4890423;28;20048;-60
2024/01/17 10:14:38;;;;;;;14.77;9.55;;;0.70;99.90;;;;;;4869561;28;20052;-59
2024/01/17 10:17:05;;;;;;;13.75;9.13;;;0.80;99.90;;;;;;4895416;28;20043;-60
2024/01/17 10:19:30;;;;;;;15.48;9.93;;;0.90;99.90;;;;;;4891915;28;20503;-58
2024/01/17 10:22:02;;;;;;;12.82;9.77;;;0.80;99.90;;;;;;4893905;28;20082;-58
2024/01/17 10:24:32;;;;;;;16.58;10.48;;;0.80;99.90;;;;;;4889941;28;20063;-59
2024/01/17 10:27:01;;;;;;;16.27;9.98;;;0.80;99.90;;;;;;4892906;28;20403;-58
2024/01/17 10:29:27;;;;;;;18.48;10.07;;;0.90;99.90;;;;;;4889791;28;20075;-59
2024/01/17 10:31:58;;;;;;;14.20;9.00;;;0.90;99.90;;;;;;4888992;28;20411;-60
2024/01/17 10:34:30;;;;;;;14.23;8.38;;;0.90;99.90;;;;;;4903377;28;20495;-59
2024/01/17 10:36:56;;;;;;;16.48;9.30;;;1.00;99.90;;;;;;4897984;28;20044;-59
2024/01/17 10:39:22;;;;;;;15.68;9.43;;;1.00;99.90;;;;;;4890937;28;20056;-59
2024/01/17 10:41:50;;;;;;;14.52;8.10;;;1.00;99.90;;;;;;4889593;28;20068;-60
2024/01/17 10:44:19;;;;;;;16.15;9.07;;;1.00;99.90;;;;;;4887493;29;20044;-59
2024/01/17 10:46:48;;;;;;;17.40;9.00;;;1.00;99.90;;;;;;4884656;28;20513;-60
2024/01/17 10:49:14;;;;;;;21.13;9.88;;;1.00;99.90;;;;;;4885748;28;20052;-60
2024/01/17 10:51:49;;;;;;;14.82;8.57;;;1.00;99.90;;;;;;4887374;28;20051;-60
2024/01/17 10:54:20;;;;;;;13.52;8.93;;;1.00;99.90;;;;;;4916665;28;20210;-59
2024/01/17 10:56:53;;;;;;;16.58;9.15;;;1.00;99.90;;;;;;4892102;28;20583;-59
2024/01/17 10:59:20;;;;;;;10.15;7.82;;;1.10;99.90;;;;;;4898812;28;20496;-59
2024/01/17 11:01:49;;;;;;;12.75;8.35;;;1.10;99.90;;;;;;4910001;28;20040;-59
2024/01/17 11:04:20;;;;;;;15.18;8.57;;;1.10;99.90;;;;;;4892286;28;20048;-59
2024/01/17 11:06:49;;;;;;;14.48;8.95;;;1.10;99.90;;;;;;4912196;28;20044;-59
2024/01/17 11:09:15;;;;;;;12.13;8.13;;;1.10;99.90;;;;;;4903385;28;20157;-59
2024/01/17 11:11:42;;;;;;;15.55;8.75;;;1.10;99.90;;;;;;4889621;28;20048;-59
2024/01/17 11:14:09;;;;;;;13.68;8.77;;;1.20;99.90;;;;;;4888458;28;20138;-60
2024/01/17 11:16:36;;;;;;;14.55;8.32;;;1.20;99.90;;;;;;4892903;28;20072;-60
2024/01/17 11:19:03;;;;;;;12.15;7.93;;;1.20;99.90;;;;;;4896699;28;20050;-59
2024/01/17 11:21:30;;;;;;;20.42;8.45;;;1.10;99.90;;;;;;4890718;28;20403;-59
2024/01/17 11:23:56;;;;;;;14.77;8.95;;;1.10;99.90;;;;;;4889800;28;20032;-59
2024/01/17 11:26:35;;;;;;;12.43;8.15;;;1.10;99.90;;;;;;4894821;28;20044;-61
2024/01/17 11:29:15;;;;;;;14.75;8.43;;;1.10;99.90;;;;;;4911973;28;20042;-60
2024/01/17 11:32:12;;;;;;;13.80;8.20;;;1.10;99.90;;;;;;4889024;28;20040;-58
2024/01/17 11:34:38;;;;;;;16.52;8.93;;;1.10;99.90;;;;;;4911861;28;20059;-59
2024/01/17 11:37:03;;;;;;;18.00;10.80;;;1.10;99.90;;;;;;4888767;28;20094;-58
2024/01/17 11:39:29;;;;;;;19.90;10.77;;;1.10;99.90;;;;;;4970124;28;20086;-60
2024/01/17 11:41:55;;;;;;;18.00;10.55;;;1.20;99.90;;;;;;4898311;28;20495;-59
2024/01/17 11:44:23;;;;;;;17.60;10.38;;;1.20;99.90;;;;;;4895388;28;20048;-59
2024/01/17 11:46:51;;;;;;;16.70;9.60;;;1.20;99.90;;;;;;4900539;28;20044;-60
2024/01/17 11:49:40;;;;;;;17.48;9.43;;;1.20;99.90;;;;;;4894314;28;20040;-59
2024/01/17 11:52:34;;;;;;;18.55;10.88;;;1.20;99.90;;;;;;4892532;28;20537;-59
2024/01/17 11:55:00;;;;;;;17.77;9.65;;;1.20;99.90;;;;;;4888603;28;20044;-60
2024/01/17 11:57:30;;;;;;;17.60;10.35;;;1.30;99.90;;;;;;4873981;28;20179;-60
2024/01/17 12:00:05;;;;;;;16.35;9.30;;;1.20;99.90;;;;;;4907924;28;20040;-58
2024/01/17 12:02:41;;;;;;;13.85;9.40;;;1.10;99.90;;;;;;4884945;28;20044;-60
2024/01/17 12:05:08;;;;;;;15.38;10.52;;;1.10;99.90;;;;;;4969928;28;20066;-60
2024/01/17 12:07:42;;;;;;;15.05;9.02;;;1.20;99.90;;;;;;4890890;28;20082;-59
2024/01/17 12:10:10;;;;;;;13.20;9.68;;;1.20;99.90;;;;;;4893607;28;20053;-59
2024/01/17 12:12:43;;;;;;;15.13;9.32;;;1.20;99.90;;;;;;4882882;28;20111;-60
2024/01/17 12:15:12;;;;;;;19.42;10.20;;;1.20;99.90;;;;;;4890306;28;20059;-60
2024/01/17 12:17:39;;;;;;;19.60;10.50;;;1.20;99.90;;;;;;4889950;28;20053;-60
2024/01/17 12:20:08;;;;;;;16.92;10.20;;;1.20;99.90;;;;;;4891119;28;20533;-60
2024/01/17 12:22:35;;;;;;;18.83;9.55;;;1.20;99.90;;;;;;4896817;28;20044;-60
2024/01/17 12:25:01;;;;;;;13.95;9.48;;;1.30;99.90;;;;;;4901524;28;20059;-60
2024/01/17 12:27:31;;;;;;;16.13;9.52;;;1.30;99.90;;;;;;4888489;28;20483;-61
2024/01/17 12:30:07;;;;;;;18.48;10.65;;;1.30;99.90;;;;;;4895429;28;20442;-60
2024/01/17 12:32:33;;;;;;;18.35;9.68;;;1.30;99.90;;;;;;4890232;28;20271;-60
2024/01/17 12:34:59;;;;;;;16.00;9.88;;;1.30;99.90;;;;;;4900583;28;20396;-60
2024/01/17 12:37:28;;;;;;;17.98;10.85;;;1.30;99.90;;;;;;4890104;28;20187;-60
2024/01/17 12:39:54;;;;;;;15.32;10.10;;;1.40;99.90;;;;;;4901506;28;20051;-59
2024/01/17 12:42:20;;;;;;;23.88;11.60;;;1.40;99.90;;;;;;4891307;28;20488;-60